Aérodrome :
LOGIN :

S'inscrire | Disclaimer

   EN    FR    IT 

 










Légende :    VFR   VFR Marginal   IFR   IFR Intensif   IFR Très Intensif
Visi : 
Plafond : 
>= 8 km
>= 3000ft
5 à 8 km
1000 à 3000 ft
1500m à 5 km
500 à 1000 ft
800 à 1500m
200 à 500 ft
< 800m
< 200 ft
Symboles :   Orages  Brouillard  Fortes neiges  Fortes précipitations  Vent > 20 kt
SIGMETs :   Divers  Orages  Givrage  Turbulence  Onde Orograph.  Cendres Volcan.







- Altitude de l'aérodrome : 863 ft
- Code IATA : ZAZ


LEZG - Zaragoza Aragon

DERNIER METAR :
  • 140800Z VRB02KT 9999 BKN035 BKN065 05/03 Q1018

METARs EXPIRÉS :
  • 140730Z VRB01KT 9999 SCT035 SCT070 05/02 Q1018
  • 140700Z 26004KT 240V310 9999 BKN040 05/02 Q1018
  • 140630Z 24005KT 9999 SCT045 04/02 Q1018
  • 140600Z 28008KT 9999 SCT045 04/02 Q1018
  • 140530Z 28007KT 9999 FEW045 SCT070 04/02 Q1018 NOSIG

TAF TAF LEZG
Valide du 14 à 06h jusqu'au 15 à 06h UTC


140500Z 1406/1506 26007KT 9999 SCT040 TX17/1413Z TN03/1407Z
TEMPO 1411/1414 VRB03KT
BECMG 1414/1416 24015KT
TEMPO 1416/1422 24018G30KT
BECMG 1500/1502 31005KT
PROB40
TEMPO 1502/1506 0500 BCFG VV002
Pas de NOTAMs connus pour ce terrain.



MET'MAP, la Météo Aéronautique d'un coup d'oeil ! - Copyright ORBIFLY Décembre 2007 - Disclaimer

ORBIFLY MET'MAP TEAM :

Programmation & Développement : Alexandra Zaïnal
Conception & Développement : Baudouin d'Aumeries
Co-Programmation & Développement : Marc-Olivier Méhu
Soutien technique & logistique : Manuel Goepfert

Contact : metmap@orbifly.com




SOURCES & CREDITS :

   NOAA